createdAt,value
2018-11-20T00:01:03.976Z,16.25
2018-11-20T00:03:58.752Z,15.10
2018-11-20T00:06:50.397Z,15.15
2018-11-20T00:09:39.287Z,17.10
2018-11-20T00:12:39.974Z,16.87
2018-11-20T00:15:21.049Z,17.73
2018-11-20T00:18:12.870Z,17.85
2018-11-20T00:21:03.370Z,16.23
2018-11-20T00:23:48.073Z,16.27
2018-11-20T00:26:35.337Z,18.60
2018-11-20T00:29:23.495Z,18.30
2018-11-20T00:32:07.135Z,19.48
2018-11-20T00:34:54.399Z,20.60
2018-11-20T00:37:55.268Z,17.80
2018-11-20T00:40:46.738Z,17.57
2018-11-20T00:43:33.947Z,16.97
2018-11-20T00:46:22.080Z,20.43
2018-11-20T00:49:12.655Z,15.98
2018-11-20T00:52:00.382Z,18.20
2018-11-20T00:54:46.552Z,21.42
2018-11-20T00:57:35.421Z,17.15
2018-11-20T01:00:27.486Z,19.05
2018-11-20T01:03:16.327Z,18.23
2018-11-20T01:06:08.309Z,20.48
2018-11-20T01:09:07.552Z,22.65
2018-11-20T01:11:59.233Z,20.72
2018-11-20T01:14:51.301Z,20.10
2018-11-20T01:17:28.620Z,19.75
2018-11-20T01:20:17.457Z,19.62
2018-11-20T01:23:04.971Z,21.62
2018-11-20T01:26:02.914Z,19.55
2018-11-20T01:29:00.377Z,20.20
2018-11-20T01:31:42.114Z,19.40
2018-11-20T01:34:42.954Z,19.23
2018-11-20T01:39:18.926Z,21.87
2018-11-20T01:42:04.808Z,24.05
2018-11-20T01:44:58.619Z,23.60
2018-11-20T01:47:52.555Z,21.37
2018-11-20T01:50:40.612Z,23.60
2018-11-20T01:53:31.388Z,21.80
2018-11-20T01:56:07.530Z,24.40
2018-11-20T01:58:52.139Z,22.93
2018-11-20T02:01:34.639Z,22.90
2018-11-20T02:04:31.824Z,28.07
2018-11-20T02:07:35.469Z,27.37
2018-11-20T02:10:29.597Z,25.53
2018-11-20T02:13:55.187Z,24.47
2018-11-20T02:16:59.454Z,24.87
2018-11-20T02:19:47.472Z,22.67
2018-11-20T02:22:50.595Z,27.07
2018-11-20T02:25:37.780Z,23.15
2018-11-20T02:28:24.549Z,27.10
2018-11-20T02:31:11.202Z,24.70
2018-11-20T02:33:57.947Z,24.20
2018-11-20T02:36:44.650Z,24.10
2018-11-20T02:39:31.265Z,24.10
2018-11-20T02:42:18.290Z,24.98
2018-11-20T02:45:05.112Z,26.25
2018-11-20T02:48:08.537Z,25.27
2018-11-20T02:51:02.326Z,29.27
2018-11-20T02:53:48.973Z,24.80
2018-11-20T02:56:29.652Z,24.75
2018-11-20T02:59:29.480Z,25.43
2018-11-20T03:02:11.029Z,26.62
2018-11-20T03:05:01.884Z,28.65
2018-11-20T03:07:48.596Z,28.32
2018-11-20T03:10:28.817Z,26.17
2018-11-20T03:13:15.729Z,25.60
2018-11-20T03:16:18.693Z,29.75
2018-11-20T03:19:09.537Z,27.52
2018-11-20T03:22:09.951Z,26.45
2018-11-20T03:24:49.904Z,27.35
2018-11-20T03:27:35.883Z,26.68
2018-11-20T03:31:09.606Z,32.47
2018-11-20T03:33:58.178Z,32.00
2018-11-20T03:36:45.162Z,30.77
2018-11-20T03:39:32.378Z,32.83
2018-11-20T03:42:26.339Z,31.05
2018-11-20T03:45:13.041Z,34.85
2018-11-20T03:48:00.026Z,31.60
2018-11-20T03:50:46.964Z,31.27
2018-11-20T03:53:32.643Z,33.38
2018-11-20T03:56:29.413Z,32.00
2018-11-20T03:59:16.306Z,34.43
2018-11-20T04:01:52.299Z,29.70
2018-11-20T04:04:40.328Z,32.75
2018-11-20T04:07:25.985Z,35.25
2018-11-20T04:10:03.076Z,33.25
2018-11-20T04:12:39.417Z,30.57
2018-11-20T04:15:33.712Z,32.23
2018-11-20T04:18:24.681Z,30.10
2018-11-20T04:21:12.730Z,32.40
2018-11-20T04:24:16.044Z,32.83
2018-11-20T04:27:16.288Z,32.23
2018-11-20T04:29:55.909Z,36.35
2018-11-20T04:32:35.059Z,31.52
2018-11-20T04:35:24.028Z,32.28
2018-11-20T04:38:24.092Z,29.50
2018-11-20T04:41:10.877Z,34.00
2018-11-20T04:44:01.512Z,31.77
2018-11-20T04:46:56.765Z,31.33
2018-11-20T04:49:38.187Z,33.73
2018-11-20T04:52:38.340Z,36.37
2018-11-20T04:55:29.296Z,33.17
2018-11-20T04:58:14.035Z,32.42
2018-11-20T05:01:01.110Z,34.17
2018-11-20T05:03:52.213Z,36.30
2018-11-20T05:06:45.274Z,32.73
2018-11-20T05:09:30.808Z,33.80
2018-11-20T05:12:13.915Z,32.90
2018-11-20T05:14:53.552Z,32.00
2018-11-20T05:17:47.499Z,32.15
2018-11-20T05:20:34.337Z,34.00
2018-11-20T05:23:22.367Z,30.43
2018-11-20T05:26:13.075Z,34.88
2018-11-20T05:29:10.214Z,33.20
2018-11-20T05:31:52.414Z,31.83
2018-11-20T05:34:46.192Z,29.30
2018-11-20T05:37:23.879Z,31.03
2018-11-20T05:40:10.717Z,31.23
2018-11-20T05:42:57.443Z,33.42
2018-11-20T05:45:44.297Z,29.42
2018-11-20T05:48:31.152Z,35.43
2018-11-20T05:51:25.575Z,30.00
2018-11-20T05:54:12.645Z,34.33
2018-11-20T05:56:51.578Z,33.20
2018-11-20T05:59:38.665Z,30.37
2018-11-20T06:02:24.271Z,32.65
2018-11-20T06:05:30.214Z,36.20
2018-11-20T06:08:21.281Z,32.90
2018-11-20T06:11:08.407Z,29.85
2018-11-20T06:13:57.768Z,33.10
2018-11-20T06:17:00.908Z,33.83
2018-11-20T06:20:05.226Z,33.65
2018-11-20T06:22:52.329Z,35.05
2018-11-20T06:25:45.709Z,38.47
2018-11-20T06:28:52.517Z,36.50
2018-11-20T06:31:58.776Z,36.13
2018-11-20T06:34:55.749Z,32.63
2018-11-20T06:37:42.191Z,33.70
2018-11-20T06:40:28.938Z,33.80
2018-11-20T06:43:15.641Z,32.07
2018-11-20T06:46:07.158Z,32.00
2018-11-20T06:48:54.226Z,31.85
2018-11-20T06:51:37.141Z,33.18
2018-11-20T06:54:23.881Z,31.70
2018-11-20T06:57:06.161Z,31.07
2018-11-20T06:59:52.305Z,31.17
2018-11-20T07:02:45.298Z,30.67
2018-11-20T07:05:36.483Z,32.25
2018-11-20T07:08:22.242Z,29.93
2018-11-20T07:11:06.398Z,33.53
2018-11-20T07:14:00.816Z,32.13
2018-11-20T07:17:06.307Z,35.53
2018-11-20T07:20:15.004Z,34.60
2018-11-20T07:23:05.570Z,36.53
2018-11-20T07:25:52.036Z,31.52
2018-11-20T07:28:38.920Z,34.85
2018-11-20T07:31:27.051Z,36.85
2018-11-20T07:34:12.832Z,35.65
2018-11-20T07:37:07.152Z,35.25
2018-11-20T07:39:55.067Z,41.13
2018-11-20T07:42:52.875Z,36.70
2018-11-20T07:45:39.498Z,41.18
2018-11-20T07:48:30.854Z,38.55
2018-11-20T07:51:23.513Z,36.48
2018-11-20T07:54:10.499Z,41.83
2018-11-20T07:56:57.083Z,41.50
2018-11-20T07:59:45.298Z,43.55
2018-11-20T08:02:32.428Z,40.25
2018-11-20T08:05:39.042Z,38.50
2018-11-20T08:08:21.206Z,42.43
2018-11-20T08:11:15.383Z,43.50
2018-11-20T08:14:04.922Z,44.80
2018-11-20T08:16:51.724Z,45.77
2018-11-20T08:19:39.765Z,48.23
2018-11-20T08:22:41.517Z,50.43
2018-11-20T08:25:47.994Z,53.70
2018-11-20T08:28:36.127Z,48.33
2018-11-20T08:31:39.180Z,48.25
2018-11-20T08:34:27.232Z,49.85
2018-11-20T08:37:13.890Z,45.83
2018-11-20T08:40:00.977Z,42.40
2018-11-20T08:42:49.040Z,40.78
2018-11-20T08:45:30.071Z,43.42
2018-11-20T08:48:12.353Z,41.92
2018-11-20T08:50:59.450Z,48.47
2018-11-20T08:53:47.646Z,43.23
2018-11-20T08:56:34.553Z,37.58
2018-11-20T08:59:11.960Z,38.98
2018-11-20T09:01:58.928Z,37.17
2018-11-20T09:04:46.157Z,36.13
2018-11-20T09:07:52.314Z,40.15
2018-11-20T09:10:55.731Z,37.05
2018-11-20T09:13:49.549Z,38.90
2018-11-20T09:16:47.922Z,42.07
2018-11-20T09:19:30.826Z,41.23
2018-11-20T09:22:21.645Z,45.55
2018-11-20T09:24:59.319Z,39.00
2018-11-20T09:27:46.147Z,40.12
2018-11-20T09:30:33.151Z,41.45
2018-11-20T09:33:24.171Z,39.27
2018-11-20T09:36:16.908Z,39.13
2018-11-20T09:39:08.428Z,43.00
2018-11-20T09:41:55.479Z,42.53
2018-11-20T09:45:11.126Z,41.30
2018-11-20T09:48:05.613Z,41.20
2018-11-20T09:50:53.089Z,40.75
2018-11-20T09:53:40.030Z,42.73
2018-11-20T09:56:28.097Z,42.15
2018-11-20T09:59:12.714Z,41.25
2018-11-20T10:02:12.866Z,39.88
2018-11-20T10:05:03.781Z,39.50
2018-11-20T10:07:50.637Z,36.93
2018-11-20T10:10:51.101Z,37.48
2018-11-20T10:13:54.650Z,40.55
2018-11-20T10:16:34.258Z,40.00
2018-11-20T10:19:37.561Z,39.90
2018-11-20T10:22:24.602Z,35.58
2018-11-20T10:25:15.671Z,34.00
2018-11-20T10:28:13.029Z,38.80
2018-11-20T10:31:13.042Z,32.30
2018-11-20T10:34:19.648Z,38.70
2018-11-20T10:37:03.151Z,31.90
2018-11-20T10:39:50.541Z,33.03
2018-11-20T10:42:35.229Z,32.17
2018-11-20T10:45:30.538Z,33.43
2018-11-20T10:48:13.973Z,33.17
2018-11-20T10:51:01.168Z,33.95
2018-11-20T10:54:01.533Z,33.83
2018-11-20T10:56:52.348Z,34.73
2018-11-20T10:59:58.622Z,30.30
2018-11-20T11:02:45.661Z,36.17
2018-11-20T11:05:52.136Z,32.08
2018-11-20T11:08:40.246Z,33.10
2018-11-20T11:11:33.928Z,35.65
2018-11-20T11:14:25.226Z,34.45
2018-11-20T11:17:11.922Z,34.33
2018-11-20T11:20:01.478Z,33.08
2018-11-20T11:22:49.537Z,33.65
2018-11-20T11:25:34.049Z,37.30
2018-11-20T11:28:31.147Z,32.33
2018-11-20T11:31:32.364Z,33.23
2018-11-20T11:34:20.922Z,37.33
2018-11-20T11:37:18.254Z,32.67
2018-11-20T11:39:52.511Z,31.95
2018-11-20T11:42:39.320Z,32.83
2018-11-20T11:45:27.355Z,32.47
2018-11-20T11:48:16.972Z,32.15
2018-11-20T11:51:05.417Z,33.30
2018-11-20T11:54:00.066Z,34.85
2018-11-20T11:56:57.156Z,35.15
2018-11-20T11:59:51.222Z,35.00
2018-11-20T12:05:28.516Z,34.30
2018-11-20T12:08:21.981Z,32.35
2018-11-20T12:11:12.987Z,33.98
2018-11-20T12:14:19.396Z,32.57
2018-11-20T12:17:17.241Z,34.80
2018-11-20T12:20:04.233Z,35.43
2018-11-20T12:22:48.093Z,36.30
2018-11-20T12:25:51.689Z,34.10
2018-11-20T12:28:43.256Z,37.70
2018-11-20T12:31:37.130Z,55.90
2018-11-20T12:34:23.868Z,45.10
2018-11-20T12:37:13.863Z,36.77
2018-11-20T12:40:00.635Z,41.00
2018-11-20T12:43:01.641Z,35.48
2018-11-20T12:46:01.479Z,35.10
2018-11-20T12:48:48.168Z,34.67
2018-11-20T12:51:48.833Z,34.73
2018-11-20T12:54:39.178Z,31.50
2018-11-20T12:57:42.459Z,31.73
2018-11-20T13:00:29.535Z,36.30
2018-11-20T13:03:32.986Z,32.63
2018-11-20T13:06:12.395Z,31.90
2018-11-20T13:09:03.297Z,38.33
2018-11-20T13:11:54.028Z,33.85
2018-11-20T13:14:42.144Z,33.63
2018-11-20T13:17:40.726Z,39.38
2018-11-20T13:20:29.500Z,48.05
2018-11-20T13:23:21.314Z,50.85
2018-11-20T13:26:13.316Z,41.70
2018-11-20T13:28:50.838Z,49.60
2018-11-20T13:31:37.545Z,47.17
2018-11-20T13:34:21.001Z,44.33
2018-11-20T13:37:04.716Z,41.83
2018-11-20T13:40:11.070Z,37.67
2018-11-20T13:42:55.516Z,33.55
2018-11-20T13:45:46.943Z,36.77
2018-11-20T13:48:33.750Z,41.30
2018-11-20T13:51:15.231Z,36.10
2018-11-20T13:53:56.515Z,34.60
2018-11-20T13:56:44.638Z,35.38
2018-11-20T13:59:50.816Z,38.57
2018-11-20T14:02:32.309Z,32.70
2018-11-20T14:05:32.622Z,34.58
2018-11-20T14:08:09.603Z,33.33
2018-11-20T14:11:00.696Z,32.90
2018-11-20T14:13:48.716Z,36.08
2018-11-20T14:16:35.618Z,36.23
2018-11-20T14:19:18.310Z,34.17
2018-11-20T14:22:01.813Z,34.55
2018-11-20T14:24:45.477Z,45.95
2018-11-20T14:27:33.485Z,36.35
2018-11-20T14:30:27.617Z,36.30
2018-11-20T14:33:30.690Z,35.68
2018-11-20T14:36:17.754Z,34.75
2018-11-20T14:39:08.683Z,36.10
2018-11-20T14:41:56.794Z,42.50
2018-11-20T14:44:44.855Z,36.77
2018-11-20T14:47:35.690Z,38.10
2018-11-20T14:50:25.039Z,38.08
2018-11-20T14:53:13.073Z,40.28
2018-11-20T14:56:00.206Z,42.80
2018-11-20T14:58:38.071Z,45.80
2018-11-20T15:01:38.251Z,43.38
2018-11-20T15:04:25.301Z,45.87
2018-11-20T15:07:00.936Z,43.45
2018-11-20T15:09:49.369Z,46.28
2018-11-20T15:12:31.595Z,45.35
2018-11-20T15:15:28.931Z,44.73
2018-11-20T15:18:11.062Z,47.80
2018-11-20T15:20:57.899Z,51.37
2018-11-20T15:23:44.324Z,50.55
2018-11-20T15:26:31.530Z,39.50
2018-11-20T15:29:22.578Z,42.08
2018-11-20T15:32:13.524Z,44.25
2018-11-20T15:35:00.626Z,53.57
2018-11-20T15:37:51.966Z,50.17
2018-11-20T15:40:37.551Z,52.67
2018-11-20T15:43:31.607Z,53.45
2018-11-20T15:46:22.954Z,51.83
2018-11-20T15:49:23.653Z,50.07
2018-11-20T15:52:11.555Z,49.66
2018-11-20T15:55:11.421Z,48.30
2018-11-20T15:58:08.579Z,47.15
2018-11-20T16:00:55.442Z,48.87
2018-11-20T16:03:53.239Z,53.83
2018-11-20T16:06:39.917Z,56.02
2018-11-20T16:09:37.389Z,52.67
2018-11-20T16:12:24.454Z,54.58
2018-11-20T16:15:12.537Z,57.83
2018-11-20T16:17:59.471Z,65.37
2018-11-20T16:20:50.246Z,70.37
2018-11-20T16:23:43.760Z,66.97
2018-11-20T16:26:30.758Z,63.80
2018-11-20T16:29:17.796Z,59.00
2018-11-20T16:32:17.933Z,66.83
2018-11-20T16:35:11.929Z,59.33
2018-11-20T16:37:56.799Z,62.25
2018-11-20T16:40:43.644Z,61.65
2018-11-20T16:43:27.797Z,64.77
2018-11-20T16:46:15.132Z,60.33
2018-11-20T16:49:02.281Z,64.63
2018-11-20T16:51:53.100Z,64.20
2018-11-20T16:54:43.929Z,64.60
2018-11-20T16:57:30.680Z,58.83
2018-11-20T17:00:17.737Z,62.90
2018-11-20T17:03:15.215Z,57.60
2018-11-20T17:06:02.276Z,56.30
2018-11-20T17:08:56.539Z,56.60
2018-11-20T17:11:47.434Z,54.60
2018-11-20T17:14:28.616Z,61.35
2018-11-20T17:17:13.241Z,61.27
2018-11-20T17:19:50.539Z,52.43
2018-11-20T17:22:37.620Z,53.38
2018-11-20T17:25:25.182Z,57.07
2018-11-20T17:28:11.924Z,54.93
2018-11-20T17:30:55.736Z,57.45
2018-11-20T17:33:56.192Z,49.17
2018-11-20T17:36:52.709Z,51.20
2018-11-20T17:39:42.011Z,51.23
2018-11-20T17:42:41.517Z,54.93
2018-11-20T17:45:22.679Z,52.55
2018-11-20T17:48:02.183Z,53.27
2018-11-20T17:51:02.462Z,50.30
2018-11-20T17:53:49.430Z,52.20
2018-11-20T17:56:36.440Z,51.35
2018-11-20T17:59:12.975Z,49.20
2018-11-20T18:01:49.867Z,46.27
2018-11-20T18:04:37.891Z,50.20
2018-11-20T18:07:32.151Z,47.65
2018-11-20T18:10:29.162Z,42.58
2018-11-20T18:13:16.436Z,42.47
2018-11-20T18:16:13.832Z,44.37
2018-11-20T18:18:58.589Z,45.92
2018-11-20T18:21:45.456Z,44.10
2018-11-20T18:24:24.492Z,44.13
2018-11-20T18:27:00.990Z,48.40
2018-11-20T18:29:52.080Z,44.15
2018-11-20T18:32:40.885Z,43.55
2018-11-20T18:35:27.351Z,42.70
2018-11-20T18:38:15.142Z,42.30
2018-11-20T18:41:06.733Z,41.87
2018-11-20T18:43:54.797Z,45.17
2018-11-20T18:46:41.461Z,41.23
2018-11-20T18:49:28.363Z,41.80
2018-11-20T18:52:07.029Z,40.77
2018-11-20T18:55:10.211Z,36.33
2018-11-20T18:57:51.248Z,39.83
2018-11-20T19:00:42.287Z,40.95
2018-11-20T19:03:28.985Z,37.98
2018-11-20T19:06:26.400Z,40.43
2018-11-20T19:09:22.067Z,42.05
2018-11-20T19:12:25.400Z,44.10
2018-11-20T19:15:28.718Z,40.00
2018-11-20T19:18:15.536Z,40.63
2018-11-20T19:20:55.066Z,38.42
2018-11-20T19:23:58.059Z,41.37
2018-11-20T19:26:32.694Z,41.77
2018-11-20T19:29:17.452Z,44.60
2018-11-20T19:32:20.745Z,44.57
2018-11-20T19:34:59.884Z,44.60
2018-11-20T19:37:43.707Z,46.40
2018-11-20T19:40:49.910Z,41.50
2018-11-20T19:43:37.262Z,44.20
2018-11-20T19:46:27.629Z,48.20
2018-11-20T19:49:31.499Z,42.45
2018-11-20T19:52:36.062Z,45.90
2018-11-20T19:55:26.023Z,46.23
2018-11-20T19:58:28.537Z,43.23
2018-11-20T20:01:25.396Z,47.03
2018-11-20T20:04:17.727Z,43.87
2018-11-20T20:07:05.875Z,44.10
2018-11-20T20:09:54.285Z,46.00
2018-11-20T20:12:35.450Z,49.30
2018-11-20T20:15:32.885Z,48.17
2018-11-20T20:18:32.117Z,47.93
2018-11-20T20:21:18.697Z,50.08
2018-11-20T20:24:07.757Z,49.27
2018-11-20T20:26:59.447Z,49.48
2018-11-20T20:29:46.755Z,50.30
2018-11-20T20:32:46.621Z,50.80
2018-11-20T20:35:39.315Z,52.32
2018-11-20T20:38:42.986Z,51.50
2018-11-20T20:41:38.744Z,57.03
2018-11-20T20:44:40.678Z,55.53
2018-11-20T20:47:42.980Z,51.75
2018-11-20T20:50:34.013Z,54.67
2018-11-20T20:53:40.655Z,53.13
2018-11-20T20:56:42.383Z,51.48
2018-11-20T20:59:33.158Z,54.23
2018-11-20T21:02:41.571Z,49.70
2018-11-20T21:05:34.865Z,50.67
2018-11-20T21:08:25.730Z,49.08
2018-11-20T21:11:18.543Z,51.02
2018-11-20T21:14:14.829Z,47.83
2018-11-20T21:16:54.100Z,47.48
2018-11-20T21:19:59.563Z,46.08
2018-11-20T21:22:47.878Z,48.07
2018-11-20T21:25:37.023Z,46.25
2018-11-20T21:28:28.917Z,50.80
2018-11-20T21:31:21.390Z,47.30
2018-11-20T21:34:29.102Z,49.03
2018-11-20T21:37:17.710Z,50.73
2018-11-20T21:40:15.518Z,50.93
2018-11-20T21:43:04.655Z,52.13
2018-11-20T21:46:06.278Z,52.80
2018-11-20T21:49:10.960Z,54.77
2018-11-20T21:51:57.849Z,55.85
2018-11-20T21:54:44.934Z,52.20
2018-11-20T21:57:48.401Z,58.78
2018-11-20T22:01:10.883Z,59.53
2018-11-20T22:04:07.983Z,61.10
2018-11-20T22:07:08.026Z,69.40
2018-11-20T22:09:54.799Z,64.65
2018-11-20T22:12:45.569Z,65.30
2018-11-20T22:15:26.882Z,65.80
2018-11-20T22:18:29.877Z,65.97
2018-11-20T22:21:16.804Z,72.92
2018-11-20T22:24:10.693Z,72.60
2018-11-20T22:27:07.989Z,69.62
2018-11-20T22:30:05.874Z,73.60
2018-11-20T22:33:09.053Z,73.30
2018-11-20T22:35:55.945Z,77.85
2018-11-20T22:38:50.004Z,75.42
2018-11-20T22:41:47.097Z,74.40
2018-11-20T22:44:40.893Z,74.77
2018-11-20T22:47:34.759Z,82.82
2018-11-20T22:50:28.403Z,83.53
2018-11-20T22:53:28.587Z,80.30
2018-11-20T22:56:11.797Z,76.53
2018-11-20T22:59:02.515Z,75.37
2018-11-20T23:01:53.263Z,80.05
2018-11-20T23:05:02.614Z,78.15
2018-11-20T23:07:45.763Z,74.58
2018-11-20T23:10:16.701Z,79.75
2018-11-20T23:12:45.847Z,81.97
2018-11-20T23:15:15.598Z,74.22
2018-11-20T23:17:44.574Z,75.77
2018-11-20T23:20:14.071Z,76.87
2018-11-20T23:22:43.354Z,77.75
2018-11-20T23:25:13.396Z,77.92
2018-11-20T23:27:42.462Z,78.75
2018-11-20T23:30:13.337Z,75.87
2018-11-20T23:32:42.628Z,77.75
2018-11-20T23:35:12.512Z,79.03
2018-11-20T23:37:42.120Z,77.45
2018-11-20T23:40:12.256Z,79.30
2018-11-20T23:42:41.220Z,79.47
2018-11-20T23:45:12.902Z,79.50
2018-11-20T23:47:41.847Z,78.37
2018-11-20T23:50:12.294Z,79.67
2018-11-20T23:52:41.428Z,83.35
2018-11-20T23:55:12.544Z,82.80
2018-11-20T23:57:41.755Z,78.92
